createdAt,value
2019-04-14T00:00:03.434Z,4.20
2019-04-14T00:02:40.509Z,4.20
2019-04-14T00:05:12.319Z,4.20
2019-04-14T00:07:40.503Z,4.20
2019-04-14T00:10:09.492Z,4.20
2019-04-14T00:12:36.537Z,4.10
2019-04-14T00:15:17.742Z,4.20
2019-04-14T00:17:34.791Z,4.10
2019-04-14T00:20:03.185Z,4.10
2019-04-14T00:22:30.990Z,4.10
2019-04-14T00:24:59.721Z,4.10
2019-04-14T00:27:28.109Z,4.00
2019-04-14T00:29:55.257Z,4.00
2019-04-14T00:32:22.682Z,4.00
2019-04-14T00:34:59.385Z,3.90
2019-04-14T00:37:35.783Z,3.80
2019-04-14T00:40:10.513Z,3.90
2019-04-14T00:42:53.794Z,3.80
2019-04-14T00:45:41.589Z,3.70
2019-04-14T00:48:11.112Z,3.70
2019-04-14T00:50:34.593Z,3.70
2019-04-14T00:53:01.851Z,3.60
2019-04-14T00:55:29.271Z,3.50
2019-04-14T00:57:57.267Z,3.30
2019-04-14T01:00:25.460Z,3.20
2019-04-14T01:02:53.641Z,3.10
2019-04-14T01:05:21.735Z,3.10
2019-04-14T01:07:50.037Z,3.20
2019-04-14T01:10:17.294Z,3.20
2019-04-14T01:12:45.308Z,3.40
2019-04-14T01:15:13.655Z,3.50
2019-04-14T01:17:41.779Z,3.50
2019-04-14T01:20:10.001Z,3.60
2019-04-14T01:22:38.130Z,3.60
2019-04-14T01:25:06.458Z,3.60
2019-04-14T01:27:34.203Z,3.50
2019-04-14T01:30:02.636Z,3.40
2019-04-14T01:32:30.522Z,3.30
2019-04-14T01:34:58.809Z,3.30
2019-04-14T01:37:26.923Z,3.20
2019-04-14T01:39:54.590Z,3.20
2019-04-14T01:42:22.371Z,3.20
2019-04-14T01:44:50.328Z,3.20
2019-04-14T01:47:18.196Z,3.30
2019-04-14T01:49:46.512Z,3.30
2019-04-14T01:52:23.184Z,3.20
2019-04-14T01:55:09.857Z,3.20
2019-04-14T01:57:54.913Z,3.10
2019-04-14T02:00:44.529Z,3.00
2019-04-14T02:03:12.787Z,2.90
2019-04-14T02:05:40.714Z,3.00
2019-04-14T02:08:08.995Z,3.00
2019-04-14T02:10:36.873Z,3.00
2019-04-14T02:13:04.983Z,3.10
2019-04-14T02:15:33.058Z,3.20
2019-04-14T02:18:00.956Z,3.30
2019-04-14T02:20:28.031Z,3.20
2019-04-14T02:22:55.325Z,3.20
2019-04-14T02:25:23.091Z,3.10
2019-04-14T02:27:51.403Z,3.00
2019-04-14T02:30:23.047Z,3.00
2019-04-14T02:33:18.134Z,2.90
2019-04-14T02:35:47.156Z,2.80
2019-04-14T02:38:37.260Z,2.80
2019-04-14T02:40:45.916Z,2.70
2019-04-14T02:43:17.467Z,2.80
2019-04-14T02:45:44.634Z,2.90
2019-04-14T02:48:22.360Z,3.00
2019-04-14T02:50:32.469Z,3.10
2019-04-14T02:53:10.975Z,3.10
2019-04-14T02:55:39.867Z,3.10
2019-04-14T02:58:01.763Z,3.10
2019-04-14T03:00:48.561Z,3.00
2019-04-14T03:03:01.373Z,3.00
2019-04-14T03:08:00.392Z,3.00
2019-04-14T03:10:34.106Z,3.00
2019-04-14T03:13:09.333Z,3.00
2019-04-14T03:15:36.788Z,3.00
2019-04-14T03:23:44.206Z,3.10
2019-04-14T03:26:15.464Z,3.00
2019-04-14T03:28:45.442Z,3.00
2019-04-14T03:31:39.434Z,3.10
2019-04-14T03:38:53.387Z,3.20
2019-04-14T03:41:17.311Z,3.20
2019-04-14T03:43:50.811Z,3.20
2019-04-14T03:46:21.336Z,3.20
2019-04-14T03:51:13.743Z,3.20
2019-04-14T03:53:50.866Z,3.20
2019-04-14T03:56:17.720Z,3.20
2019-04-14T03:58:44.788Z,3.20
2019-04-14T04:01:12.652Z,3.20
2019-04-14T04:03:40.029Z,3.20
2019-04-14T04:06:07.576Z,3.10
2019-04-14T04:08:35.485Z,3.20
2019-04-14T04:11:03.966Z,3.20
2019-04-14T04:13:32.299Z,3.10
2019-04-14T04:16:13.828Z,3.00
2019-04-14T04:18:50.886Z,2.90
2019-04-14T04:21:29.460Z,2.80
2019-04-14T04:24:02.069Z,2.80
2019-04-14T04:26:47.717Z,2.80
2019-04-14T04:29:33.096Z,2.80
2019-04-14T04:32:07.816Z,2.80
2019-04-14T04:34:44.545Z,2.80
2019-04-14T04:37:34.426Z,2.70
2019-04-14T04:40:07.225Z,2.70
2019-04-14T04:42:35.137Z,2.60
2019-04-14T04:45:03.948Z,2.70
2019-04-14T04:47:31.631Z,2.70
2019-04-14T04:49:59.973Z,2.80
2019-04-14T04:52:28.041Z,2.80
2019-04-14T04:54:55.944Z,2.90
2019-04-14T04:57:24.233Z,3.00
2019-04-14T04:59:51.726Z,3.10
2019-04-14T05:02:19.805Z,3.20
2019-04-14T05:04:48.305Z,3.30
2019-04-14T05:07:16.673Z,3.50
2019-04-14T05:10:02.758Z,3.50
2019-04-14T05:13:05.382Z,3.50
2019-04-14T05:15:53.301Z,3.50
2019-04-14T05:18:24.763Z,3.40
2019-04-14T05:20:53.208Z,3.40
2019-04-14T05:23:21.332Z,3.40
2019-04-14T05:25:49.497Z,3.40
2019-04-14T05:28:17.826Z,3.40
2019-04-14T05:30:45.825Z,3.40
2019-04-14T05:33:14.078Z,3.60
2019-04-14T05:35:42.326Z,5.40
2019-04-14T05:38:10.515Z,6.70
2019-04-14T05:40:38.617Z,7.70
2019-04-14T05:43:06.742Z,7.90
2019-04-14T05:45:35.126Z,8.60
2019-04-14T05:48:03.261Z,9.40
2019-04-14T05:50:31.307Z,9.60
2019-04-14T05:52:59.976Z,9.90
2019-04-14T05:55:28.464Z,10.10
2019-04-14T05:57:56.816Z,10.60
2019-04-14T06:00:25.553Z,10.30
2019-04-14T06:02:52.859Z,10.40
2019-04-14T06:05:21.061Z,10.50
2019-04-14T06:07:48.458Z,10.20
2019-04-14T06:10:15.638Z,9.80
2019-04-14T06:12:42.875Z,10.10
2019-04-14T06:15:10.786Z,10.40
2019-04-14T06:17:38.047Z,10.70
2019-04-14T06:20:05.305Z,10.90
2019-04-14T06:22:32.598Z,11.00
2019-04-14T06:25:00.144Z,10.20
2019-04-14T06:27:27.353Z,9.90
2019-04-14T06:29:58.819Z,10.30
2019-04-14T06:32:34.146Z,10.40
2019-04-14T06:35:17.981Z,10.50
2019-04-14T06:37:54.406Z,10.70
2019-04-14T06:40:22.303Z,11.00
2019-04-14T06:42:49.627Z,10.80
2019-04-14T06:45:16.893Z,10.90
2019-04-14T06:47:44.006Z,10.70
2019-04-14T06:50:11.218Z,10.80
2019-04-14T06:52:39.444Z,10.50
2019-04-14T06:55:06.920Z,10.50
2019-04-14T06:57:34.036Z,10.20
2019-04-14T07:00:01.175Z,10.00
2019-04-14T07:02:28.438Z,9.90
2019-04-14T07:04:55.770Z,9.70
2019-04-14T07:07:22.938Z,10.10
2019-04-14T07:09:50.170Z,10.70
2019-04-14T07:12:17.640Z,10.80
2019-04-14T07:14:45.234Z,10.80
2019-04-14T07:17:12.427Z,10.50
2019-04-14T07:19:39.716Z,10.40
2019-04-14T07:22:06.869Z,10.70
2019-04-14T07:24:33.952Z,10.20
2019-04-14T07:27:01.387Z,10.40
2019-04-14T07:29:34.578Z,10.80
2019-04-14T07:32:19.831Z,11.20
2019-04-14T07:35:01.471Z,11.60
2019-04-14T07:37:52.395Z,11.90
2019-04-14T07:40:31.934Z,11.50
2019-04-14T07:43:08.072Z,11.80
2019-04-14T07:46:07.097Z,12.10
2019-04-14T07:48:38.498Z,12.10
2019-04-14T07:51:19.484Z,12.10
2019-04-14T07:54:00.271Z,12.10
2019-04-14T07:56:40.147Z,12.20
2019-04-14T07:59:35.910Z,12.30
2019-04-14T08:02:25.614Z,12.00
2019-04-14T08:04:58.980Z,12.10
2019-04-14T08:07:26.475Z,12.20
2019-04-14T08:09:53.814Z,12.10
2019-04-14T08:12:21.571Z,12.20
2019-04-14T08:14:48.864Z,12.30
2019-04-14T08:17:15.943Z,12.10
2019-04-14T08:19:43.196Z,11.80
2019-04-14T08:22:10.412Z,12.10
2019-04-14T08:24:37.923Z,12.30
2019-04-14T08:27:05.229Z,12.20
2019-04-14T08:29:32.571Z,12.10
2019-04-14T08:31:59.959Z,12.30
2019-04-14T08:34:27.253Z,12.40
2019-04-14T08:36:54.522Z,12.60
2019-04-14T08:39:22.090Z,12.70
2019-04-14T08:42:14.642Z,12.80
2019-04-14T08:44:45.398Z,12.70
2019-04-14T08:47:20.544Z,13.00
2019-04-14T08:49:56.988Z,13.00
2019-04-14T08:52:27.530Z,13.20
2019-04-14T08:55:10.530Z,13.10
2019-04-14T08:57:47.366Z,13.20
2019-04-14T09:00:30.033Z,13.20
2019-04-14T09:03:15.392Z,13.10
2019-04-14T09:06:01.131Z,13.10
2019-04-14T09:08:35.755Z,13.30
2019-04-14T09:11:04.328Z,13.00
2019-04-14T09:13:32.905Z,13.10
2019-04-14T09:16:00.096Z,13.30
2019-04-14T09:18:28.202Z,13.10
2019-04-14T09:20:55.314Z,13.40
2019-04-14T09:23:22.963Z,13.70
2019-04-14T09:25:50.185Z,14.00
2019-04-14T09:28:17.384Z,14.00
2019-04-14T09:30:44.859Z,14.30
2019-04-14T09:33:12.006Z,14.30
2019-04-14T09:35:39.410Z,14.20
2019-04-14T09:38:06.552Z,14.40
2019-04-14T09:40:33.902Z,14.20
2019-04-14T09:43:01.120Z,14.40
2019-04-14T09:45:28.357Z,14.70
2019-04-14T09:47:55.554Z,14.60
2019-04-14T09:50:22.858Z,15.20
2019-04-14T09:52:49.986Z,15.30
2019-04-14T09:55:17.442Z,15.40
2019-04-14T09:57:44.806Z,15.20
2019-04-14T10:00:13.852Z,15.30
2019-04-14T10:02:41.181Z,15.40
2019-04-14T10:05:08.530Z,15.60
2019-04-14T10:07:36.882Z,15.80
2019-04-14T10:10:04.510Z,15.70
2019-04-14T10:12:32.022Z,15.70
2019-04-14T10:14:59.294Z,16.00
2019-04-14T10:17:26.399Z,16.00
2019-04-14T10:19:53.543Z,15.80
2019-04-14T10:22:33.140Z,15.90
2019-04-14T10:24:50.050Z,16.30
2019-04-14T10:27:17.684Z,16.70
2019-04-14T10:29:45.094Z,16.60
2019-04-14T10:32:12.310Z,16.80
2019-04-14T10:34:39.451Z,16.90
2019-04-14T10:37:06.782Z,16.90
2019-04-14T10:39:34.009Z,16.90
2019-04-14T10:42:01.641Z,17.20
2019-04-14T10:44:28.830Z,18.40
2019-04-14T10:46:56.135Z,20.30
2019-04-14T10:49:23.378Z,21.20
2019-04-14T10:51:50.979Z,22.50
2019-04-14T10:54:18.218Z,22.50
2019-04-14T10:56:45.555Z,23.20
2019-04-14T10:59:12.874Z,23.60
2019-04-14T11:01:41.150Z,23.90
2019-04-14T11:04:08.482Z,24.30
2019-04-14T11:06:51.608Z,24.40
2019-04-14T11:09:18.934Z,24.40
2019-04-14T11:11:46.194Z,24.50
2019-04-14T11:14:13.491Z,24.80
2019-04-14T11:16:40.987Z,24.60
2019-04-14T11:19:08.250Z,24.70
2019-04-14T11:21:42.337Z,24.60
2019-04-14T11:24:04.779Z,24.40
2019-04-14T11:26:32.157Z,24.70
2019-04-14T11:28:59.419Z,25.20
2019-04-14T11:31:49.054Z,25.10
2019-04-14T11:34:17.427Z,24.50
2019-04-14T11:37:07.262Z,25.10
2019-04-14T11:39:34.466Z,25.40
2019-04-14T11:42:01.742Z,25.50
2019-04-14T11:44:29.004Z,25.60
2019-04-14T11:46:56.269Z,25.30
2019-04-14T11:49:23.614Z,26.50
2019-04-14T11:51:55.619Z,26.10
2019-04-14T11:54:20.972Z,25.50
2019-04-14T11:56:48.385Z,25.90
2019-04-14T11:59:16.718Z,26.60
2019-04-14T12:01:56.552Z,26.50
2019-04-14T12:04:30.710Z,25.60
2019-04-14T12:07:35.523Z,26.60
2019-04-14T12:10:14.577Z,27.10
2019-04-14T12:12:41.842Z,28.00
2019-04-14T12:15:15.891Z,27.70
2019-04-14T12:17:38.550Z,27.70
2019-04-14T12:20:07.021Z,28.10
2019-04-14T12:22:34.330Z,27.80
2019-04-14T12:25:03.290Z,27.40
2019-04-14T12:27:30.657Z,27.10
2019-04-14T12:29:58.915Z,27.70
2019-04-14T12:32:28.293Z,27.40
2019-04-14T12:34:55.628Z,27.70
2019-04-14T12:37:23.895Z,27.60
2019-04-14T12:39:51.220Z,27.40
2019-04-14T12:42:24.982Z,27.30
2019-04-14T12:45:17.613Z,27.30
2019-04-14T12:47:56.790Z,27.70
2019-04-14T12:50:34.029Z,27.70
2019-04-14T12:53:01.539Z,27.60
2019-04-14T12:55:28.834Z,27.60
2019-04-14T12:58:01.144Z,27.60
2019-04-14T13:00:36.718Z,27.50
2019-04-14T13:03:04.042Z,27.30
2019-04-14T13:05:31.440Z,27.60
2019-04-14T13:07:58.554Z,27.70
2019-04-14T13:10:25.822Z,28.00
2019-04-14T13:12:53.162Z,28.20
2019-04-14T13:15:20.418Z,28.00
2019-04-14T13:17:48.570Z,27.10
2019-04-14T13:20:15.815Z,26.10
2019-04-14T13:22:43.109Z,25.80
2019-04-14T13:25:10.390Z,26.60
2019-04-14T13:27:37.681Z,26.60
2019-04-14T13:30:06.494Z,26.80
2019-04-14T13:32:36.121Z,27.00
2019-04-14T13:35:03.048Z,25.90
2019-04-14T13:37:31.390Z,23.40
2019-04-14T13:39:58.940Z,23.70
2019-04-14T13:42:26.154Z,24.40
2019-04-14T13:44:53.448Z,24.70
2019-04-14T13:47:20.774Z,25.00
2019-04-14T13:49:48.048Z,24.40
2019-04-14T13:52:15.398Z,23.60
2019-04-14T13:54:42.695Z,23.10
2019-04-14T13:57:10.017Z,22.70
2019-04-14T13:59:37.313Z,23.50
2019-04-14T14:02:04.655Z,23.80
2019-04-14T14:04:31.904Z,25.20
2019-04-14T14:06:59.054Z,26.20
2019-04-14T14:09:26.290Z,26.10
2019-04-14T14:12:15.825Z,26.20
2019-04-14T14:14:50.569Z,26.20
2019-04-14T14:17:27.270Z,26.40
2019-04-14T14:19:59.650Z,26.40
2019-04-14T14:22:33.331Z,26.70
2019-04-14T14:25:13.015Z,27.10
2019-04-14T14:27:40.219Z,26.50
2019-04-14T14:30:07.983Z,25.60
2019-04-14T14:32:35.767Z,25.40
2019-04-14T14:35:04.115Z,25.40
2019-04-14T14:37:31.493Z,25.60
2019-04-14T14:39:58.754Z,25.70
2019-04-14T14:42:26.038Z,26.00
2019-04-14T14:45:12.978Z,26.10
2019-04-14T14:47:46.598Z,26.20
2019-04-14T14:50:20.159Z,25.70
2019-04-14T14:52:47.226Z,24.80
2019-04-14T14:55:14.499Z,22.70
2019-04-14T14:57:41.833Z,21.40
2019-04-14T15:00:28.124Z,20.40
2019-04-14T15:02:55.384Z,20.60
2019-04-14T15:05:22.474Z,22.00
2019-04-14T15:07:49.590Z,23.10
2019-04-14T15:10:16.672Z,23.70
2019-04-14T15:12:44.066Z,24.00
2019-04-14T15:15:11.456Z,23.70
2019-04-14T15:17:38.587Z,22.40
2019-04-14T15:20:06.016Z,22.10
2019-04-14T15:22:33.199Z,22.50
2019-04-14T15:25:01.300Z,22.70
2019-04-14T15:27:28.667Z,22.50
2019-04-14T15:29:55.944Z,22.60
2019-04-14T15:32:23.104Z,22.50
2019-04-14T15:34:50.422Z,22.20
2019-04-14T15:37:17.662Z,21.60
2019-04-14T15:39:45.077Z,20.30
2019-04-14T15:42:12.403Z,19.30
2019-04-14T15:44:40.657Z,18.90
2019-04-14T15:47:08.040Z,18.70
2019-04-14T15:49:35.425Z,19.00
2019-04-14T15:52:02.892Z,19.90
2019-04-14T15:54:30.006Z,19.70
2019-04-14T15:57:08.715Z,19.00
2019-04-14T15:59:48.673Z,17.90
2019-04-14T16:02:22.125Z,17.30
2019-04-14T16:04:58.190Z,17.00
2019-04-14T16:07:41.882Z,17.20
2019-04-14T16:10:15.143Z,18.20
2019-04-14T16:13:00.358Z,19.10
2019-04-14T16:15:45.740Z,19.50
2019-04-14T16:18:35.345Z,19.70
2019-04-14T16:21:02.743Z,19.00
2019-04-14T16:23:30.266Z,17.70
2019-04-14T16:26:21.139Z,17.20
2019-04-14T16:28:59.005Z,16.70
2019-04-14T16:31:42.492Z,16.10
2019-04-14T16:34:35.023Z,15.80
2019-04-14T16:37:02.272Z,15.80
2019-04-14T16:39:29.483Z,15.50
2019-04-14T16:41:56.723Z,15.40
2019-04-14T16:44:23.926Z,15.20
2019-04-14T16:46:51.123Z,14.90
2019-04-14T16:49:18.390Z,14.80
2019-04-14T16:51:52.266Z,14.90
2019-04-14T16:54:51.303Z,14.90
2019-04-14T16:57:43.593Z,14.90
2019-04-14T17:00:13.521Z,14.60
2019-04-14T17:02:42.679Z,14.40
2019-04-14T17:05:09.896Z,14.50
2019-04-14T17:07:38.911Z,14.60
2019-04-14T17:10:06.237Z,14.50
2019-04-14T17:12:34.575Z,14.70
2019-04-14T17:15:10.225Z,14.50
2019-04-14T17:17:56.507Z,14.40
2019-04-14T17:20:41.940Z,14.50
2019-04-14T17:23:25.969Z,14.40
2019-04-14T17:25:57.764Z,14.40
2019-04-14T17:28:41.016Z,14.30
2019-04-14T17:31:22.584Z,14.30
2019-04-14T17:33:59.502Z,14.30
2019-04-14T17:36:46.061Z,14.20
2019-04-14T17:39:23.658Z,14.20
2019-04-14T17:42:03.142Z,13.30
2019-04-14T17:44:36.171Z,12.40
2019-04-14T17:47:21.783Z,11.80
2019-04-14T17:50:17.911Z,11.40
2019-04-14T17:52:49.594Z,11.00
2019-04-14T17:55:27.933Z,10.70
2019-04-14T17:58:01.699Z,10.40
2019-04-14T18:00:54.348Z,10.30
2019-04-14T18:03:35.845Z,10.20
2019-04-14T18:06:10.895Z,10.10
2019-04-14T18:08:56.714Z,10.10
2019-04-14T18:11:30.554Z,10.00
2019-04-14T18:14:26.055Z,9.80
2019-04-14T18:17:10.894Z,9.80
2019-04-14T18:20:00.219Z,9.70
2019-04-14T18:22:27.685Z,9.60
2019-04-14T18:24:54.862Z,9.50
2019-04-14T18:27:22.226Z,9.50
2019-04-14T18:30:08.019Z,9.40
2019-04-14T18:32:40.250Z,9.40
2019-04-14T18:35:13.410Z,9.40
2019-04-14T18:38:02.301Z,9.40
2019-04-14T18:40:54.941Z,9.40
2019-04-14T18:43:36.261Z,9.30
2019-04-14T18:46:09.165Z,9.30
2019-04-14T18:48:44.682Z,9.30
2019-04-14T18:51:31.802Z,9.30
2019-04-14T18:54:06.534Z,9.30
2019-04-14T18:56:49.416Z,9.30
2019-04-14T18:59:48.064Z,9.20
2019-04-14T19:02:17.467Z,9.20
2019-04-14T19:04:44.726Z,9.10
2019-04-14T19:07:12.185Z,9.10
2019-04-14T19:09:39.405Z,9.00
2019-04-14T19:12:44.216Z,9.00
2019-04-14T19:15:29.796Z,9.00
2019-04-14T19:18:07.653Z,9.00
2019-04-14T19:20:35.554Z,8.90
2019-04-14T19:23:02.804Z,8.90
2019-04-14T19:25:30.103Z,8.90
2019-04-14T19:27:57.442Z,8.80
2019-04-14T19:30:24.700Z,8.90
2019-04-14T19:32:51.802Z,8.80
2019-04-14T19:35:18.931Z,8.80
2019-04-14T19:37:46.283Z,8.80
2019-04-14T19:40:13.619Z,8.70
2019-04-14T19:42:40.815Z,8.70
2019-04-14T19:45:08.090Z,8.70
2019-04-14T19:47:35.375Z,8.60
2019-04-14T19:50:02.674Z,8.60
2019-04-14T19:52:31.070Z,8.70
2019-04-14T19:54:58.406Z,8.60
2019-04-14T19:57:25.632Z,8.60
2019-04-14T19:59:52.934Z,8.60
2019-04-14T20:02:20.150Z,8.60
2019-04-14T20:04:47.491Z,8.60
2019-04-14T20:07:14.591Z,8.60
2019-04-14T20:09:41.786Z,8.60
2019-04-14T20:12:09.214Z,8.60
2019-04-14T20:14:36.486Z,8.50
2019-04-14T20:17:22.630Z,8.60
2019-04-14T20:20:08.315Z,8.50
2019-04-14T20:22:53.289Z,8.50
2019-04-14T20:25:38.056Z,8.40
2019-04-14T20:28:10.365Z,8.40
2019-04-14T20:30:59.770Z,8.30
2019-04-14T20:33:27.056Z,8.30
2019-04-14T20:35:54.288Z,8.30
2019-04-14T20:38:21.456Z,8.30
2019-04-14T20:40:48.824Z,8.20
2019-04-14T20:43:16.031Z,8.10
2019-04-14T20:45:43.302Z,8.10
2019-04-14T20:48:10.546Z,8.00
2019-04-14T20:50:38.013Z,8.00
2019-04-14T20:53:05.349Z,8.00
2019-04-14T20:55:32.704Z,7.80
2019-04-14T20:58:01.831Z,7.70
2019-04-14T21:00:29.175Z,7.60
2019-04-14T21:03:18.846Z,7.40
2019-04-14T21:05:58.314Z,7.30
2019-04-14T21:08:43.969Z,7.10
2019-04-14T21:11:21.936Z,7.00
2019-04-14T21:14:07.397Z,7.00
2019-04-14T21:16:38.909Z,6.90
2019-04-14T21:19:10.005Z,6.80
2019-04-14T21:21:50.498Z,6.70
2019-04-14T21:24:35.802Z,6.70
2019-04-14T21:27:21.546Z,6.70
2019-04-14T21:30:17.154Z,6.60
2019-04-14T21:33:02.670Z,6.50
2019-04-14T21:35:39.215Z,6.40
2019-04-14T21:38:26.101Z,6.40
2019-04-14T21:40:56.670Z,6.30
2019-04-14T21:43:23.931Z,6.30
2019-04-14T21:45:50.997Z,6.20
2019-04-14T21:48:18.058Z,6.10
2019-04-14T21:50:45.310Z,6.10
2019-04-14T21:53:12.476Z,6.00
2019-04-14T21:55:39.731Z,6.00
2019-04-14T21:58:24.370Z,5.90
2019-04-14T22:01:47.323Z,5.90
2019-04-14T22:04:39.161Z,5.90
2019-04-14T22:07:24.761Z,5.90
2019-04-14T22:09:54.316Z,5.90
2019-04-14T22:12:21.510Z,5.90
2019-04-14T22:14:48.770Z,6.10
2019-04-14T22:17:16.248Z,6.20
2019-04-14T22:19:43.894Z,6.20
2019-04-14T22:22:11.219Z,6.30
2019-04-14T22:24:39.200Z,6.40
2019-04-14T22:27:06.531Z,6.50
2019-04-14T22:29:33.858Z,6.60
2019-04-14T22:32:01.238Z,6.60
2019-04-14T22:34:28.494Z,6.60
2019-04-14T22:36:55.901Z,6.60
2019-04-14T22:39:23.178Z,6.70
2019-04-14T22:41:50.383Z,6.80
2019-04-14T22:44:17.523Z,6.70
2019-04-14T22:46:44.786Z,6.70
2019-04-14T22:49:12.013Z,6.70
2019-04-14T22:51:39.374Z,6.80
2019-04-14T22:54:06.636Z,6.70
2019-04-14T22:56:39.425Z,6.70
2019-04-14T22:59:03.438Z,6.60
2019-04-14T23:01:31.527Z,6.50
2019-04-14T23:04:11.179Z,6.50
2019-04-14T23:06:56.472Z,6.40
2019-04-14T23:09:32.459Z,6.30
2019-04-14T23:12:09.205Z,6.20
2019-04-14T23:14:43.710Z,6.20
2019-04-14T23:17:36.484Z,6.30
2019-04-14T23:20:13.145Z,6.30
2019-04-14T23:23:06.210Z,6.40
2019-04-14T23:25:33.567Z,6.40
2019-04-14T23:28:00.807Z,6.50
2019-04-14T23:30:27.995Z,6.50
2019-04-14T23:32:55.500Z,6.60
2019-04-14T23:35:22.596Z,6.60
2019-04-14T23:37:49.706Z,6.60
2019-04-14T23:40:16.938Z,6.70
2019-04-14T23:42:44.580Z,6.70
2019-04-14T23:45:12.330Z,6.70
2019-04-14T23:47:39.678Z,6.70
2019-04-14T23:50:07.705Z,6.70
2019-04-14T23:52:35.030Z,6.70
2019-04-14T23:55:02.373Z,6.60
2019-04-14T23:57:29.674Z,6.60
2019-04-14T23:59:56.918Z,6.60
